createdAt,value
2023-01-02T00:02:04.289Z,100590.13
2023-01-02T00:04:32.105Z,100584.81
2023-01-02T00:07:02.658Z,100579.41
2023-01-02T00:09:30.872Z,100582.19
2023-01-02T00:11:58.815Z,100581.06
2023-01-02T00:14:31.012Z,100585.53
2023-01-02T00:16:58.945Z,100592.78
2023-01-02T00:19:26.975Z,100593.03
2023-01-02T00:21:54.893Z,100593.03
2023-01-02T00:24:22.978Z,100594.88
2023-01-02T00:26:51.173Z,100594.16
2023-01-02T00:29:19.412Z,100598.63
2023-01-02T00:31:48.989Z,100595.97
2023-01-02T00:34:17.109Z,100580.78
2023-01-02T00:36:45.385Z,100581.63
2023-01-02T00:39:14.185Z,100583.56
2023-01-02T00:41:42.210Z,100577.56
2023-01-02T00:44:10.264Z,100577.44
2023-01-02T00:46:38.303Z,100580.22
2023-01-02T00:49:07.582Z,100571.59
2023-01-02T00:51:35.560Z,100560.44
2023-01-02T00:54:03.418Z,100557.09
2023-01-02T00:56:32.135Z,100561.66
2023-01-02T00:58:59.998Z,100563.50
2023-01-02T01:01:28.028Z,100555.97
2023-01-02T01:03:56.119Z,100558.31
2023-01-02T01:06:25.429Z,100538.53
2023-01-02T01:08:53.434Z,100535.31
2023-01-02T01:11:21.326Z,100528.03
2023-01-02T01:13:49.457Z,100540.31
2023-01-02T01:16:20.883Z,100540.56
2023-01-02T01:18:49.497Z,100538.28
2023-01-02T01:21:21.462Z,100549.25
2023-01-02T01:23:53.023Z,100549.91
2023-01-02T01:26:22.393Z,100536.53
2023-01-02T01:28:52.499Z,100538.75
2023-01-02T01:31:20.743Z,100525.25
2023-01-02T01:33:49.752Z,100531.78
2023-01-02T01:36:20.176Z,100536.38
2023-01-02T01:38:49.090Z,100527.88
2023-01-02T01:41:20.729Z,100531.59
2023-01-02T01:43:51.080Z,100525.91
2023-01-02T01:46:25.016Z,100537.34
2023-01-02T01:48:59.355Z,100528.56
2023-01-02T01:51:29.181Z,100534.00
2023-01-02T01:54:06.022Z,100530.50
2023-01-02T01:56:39.769Z,100527.75
2023-01-02T01:59:10.305Z,100520.78
2023-01-02T02:01:39.191Z,100526.63
2023-01-02T02:04:07.398Z,100528.19
2023-01-02T02:06:35.583Z,100524.41
2023-01-02T02:09:10.582Z,100531.69
2023-01-02T02:11:40.943Z,100528.34
2023-01-02T02:14:08.794Z,100535.03
2023-01-02T02:16:43.218Z,100534.78
2023-01-02T02:19:41.113Z,100531.97
2023-01-02T02:22:29.263Z,100524.19
2023-01-02T02:25:28.652Z,100521.28
2023-01-02T02:28:27.344Z,100513.06
2023-01-02T02:31:04.951Z,100509.72
2023-01-02T02:33:45.449Z,100510.69
2023-01-02T02:36:19.864Z,100513.47
2023-01-02T02:38:58.912Z,100508.19
2023-01-02T02:41:34.173Z,100502.75
2023-01-02T02:44:21.481Z,100506.09
2023-01-02T02:46:57.541Z,100497.47
2023-01-02T02:49:42.174Z,100499.56
2023-01-02T02:52:17.849Z,100493.28
2023-01-02T02:54:55.160Z,100497.03
2023-01-02T02:57:24.865Z,100491.50
2023-01-02T02:59:53.620Z,100492.59
2023-01-02T03:02:23.254Z,100488.13
2023-01-02T03:04:57.071Z,100489.66
2023-01-02T03:07:31.906Z,100482.59
2023-01-02T03:10:15.861Z,100480.19
2023-01-02T03:12:51.546Z,100468.50
2023-01-02T03:15:25.989Z,100477.28
2023-01-02T03:18:10.151Z,100469.78
2023-01-02T03:20:42.424Z,100475.78
2023-01-02T03:23:18.013Z,100474.81
2023-01-02T03:25:47.276Z,100481.53
2023-01-02T03:28:21.106Z,100476.94
2023-01-02T03:30:55.612Z,100474.00
2023-01-02T03:33:29.516Z,100475.41
2023-01-02T03:36:04.629Z,100477.50
2023-01-02T03:38:38.159Z,100479.59
2023-01-02T03:41:10.489Z,100486.25
2023-01-02T03:43:42.112Z,100479.03
2023-01-02T03:46:16.852Z,100468.47
2023-01-02T03:48:52.384Z,100467.91
2023-01-02T03:51:20.681Z,100464.56
2023-01-02T03:53:51.634Z,100458.84
2023-01-02T03:56:28.249Z,100471.94
2023-01-02T03:59:02.486Z,100480.16
2023-01-02T04:01:40.670Z,100488.38
2023-01-02T04:04:14.340Z,100486.69
2023-01-02T04:06:47.221Z,100496.28
2023-01-02T04:09:20.130Z,100503.53
2023-01-02T04:11:53.597Z,100501.03
2023-01-02T04:14:29.411Z,100505.34
2023-01-02T04:17:00.969Z,100504.53
2023-01-02T04:19:35.955Z,100512.72
2023-01-02T04:22:08.794Z,100503.97
2023-01-02T04:25:04.927Z,100500.47
2023-01-02T04:27:36.357Z,100502.41
2023-01-02T04:30:05.069Z,100499.91
2023-01-02T04:32:38.940Z,100497.13
2023-01-02T04:35:10.703Z,100498.78
2023-01-02T04:37:40.894Z,100490.41
2023-01-02T04:40:14.763Z,100484.41
2023-01-02T04:42:48.816Z,100488.03
2023-01-02T04:45:17.572Z,100487.94
2023-01-02T04:47:45.919Z,100500.19
2023-01-02T04:50:15.420Z,100494.47
2023-01-02T04:52:43.766Z,100514.66
2023-01-02T04:55:11.799Z,100521.78
2023-01-02T04:57:39.838Z,100537.50
2023-01-02T05:00:09.905Z,100539.44
2023-01-02T05:02:39.805Z,100542.94
2023-01-02T05:05:09.768Z,100541.13
2023-01-02T05:07:39.297Z,100537.78
2023-01-02T05:10:09.744Z,100540.44
2023-01-02T05:12:40.447Z,100539.56
2023-01-02T05:15:11.625Z,100542.94
2023-01-02T05:17:41.127Z,100544.88
2023-01-02T05:20:11.703Z,100541.97
2023-01-02T05:22:59.351Z,100536.53
2023-01-02T05:25:33.524Z,100544.44
2023-01-02T05:28:02.241Z,100535.81
2023-01-02T05:30:30.499Z,100545.59
2023-01-02T05:32:58.540Z,100543.63
2023-01-02T05:35:32.110Z,100545.44
2023-01-02T05:38:02.744Z,100536.53
2023-01-02T05:40:30.650Z,100543.63
2023-01-02T05:42:59.288Z,100548.94
2023-01-02T05:45:29.662Z,100555.03
2023-01-02T05:47:57.577Z,100552.25
2023-01-02T05:50:25.563Z,100558.81
2023-01-02T05:52:53.711Z,100557.78
2023-01-02T05:55:23.307Z,100568.75
2023-01-02T05:57:55.534Z,100568.44
2023-01-02T06:00:23.582Z,100571.34
2023-01-02T06:02:51.829Z,100572.72
2023-01-02T06:05:20.003Z,100574.44
2023-01-02T06:07:48.323Z,100569.72
2023-01-02T06:10:18.514Z,100573.19
2023-01-02T06:12:48.742Z,100566.34
2023-01-02T06:15:16.820Z,100560.25
2023-01-02T06:17:44.765Z,100564.69
2023-01-02T06:20:13.072Z,100565.78
2023-01-02T06:22:40.999Z,100560.78
2023-01-02T06:25:09.645Z,100570.09
2023-01-02T06:27:37.578Z,100571.59
2023-01-02T06:30:08.908Z,100569.34
2023-01-02T06:32:36.948Z,100566.69
2023-01-02T06:35:05.285Z,100559.72
2023-01-02T06:37:33.649Z,100567.91
2023-01-02T06:40:01.434Z,100565.91
2023-01-02T06:42:29.516Z,100574.41
2023-01-02T06:44:57.422Z,100576.88
2023-01-02T06:47:26.841Z,100572.91
2023-01-02T06:49:54.643Z,100582.22
2023-01-02T06:52:22.812Z,100588.09
2023-01-02T06:54:53.170Z,100577.28
2023-01-02T06:57:21.480Z,100585.31
2023-01-02T06:59:52.091Z,100588.22
2023-01-02T07:02:22.413Z,100588.38
2023-01-02T07:04:51.976Z,100580.44
2023-01-02T07:07:19.859Z,100579.72
2023-01-02T07:09:48.173Z,100591.00
2023-01-02T07:12:16.435Z,100594.34
2023-01-02T07:14:46.095Z,100590.16
2023-01-02T07:17:15.039Z,100592.91
2023-01-02T07:19:51.427Z,100593.78
2023-01-02T07:22:23.134Z,100588.50
2023-01-02T07:24:53.923Z,100580.28
2023-01-02T07:27:22.285Z,100587.00
2023-01-02T07:29:50.226Z,100580.72
2023-01-02T07:32:26.997Z,100578.78
2023-01-02T07:34:55.782Z,100570.63
2023-01-02T07:37:25.186Z,100593.03
2023-01-02T07:39:53.170Z,100595.56
2023-01-02T07:42:21.209Z,100596.38
2023-01-02T07:44:49.069Z,100596.53
2023-01-02T07:47:17.596Z,100595.31
2023-01-02T07:49:46.771Z,100595.91
2023-01-02T07:52:14.752Z,100584.81
2023-01-02T07:54:44.155Z,100593.50
2023-01-02T07:57:14.417Z,100589.63
2023-01-02T07:59:44.917Z,100586.25
2023-01-02T08:02:13.073Z,100586.97
2023-01-02T08:04:41.698Z,100590.75
2023-01-02T08:07:10.964Z,100600.22
2023-01-02T08:09:38.848Z,100591.88
2023-01-02T08:12:08.381Z,100598.13
2023-01-02T08:14:37.295Z,100596.91
2023-01-02T08:17:05.352Z,100605.81
2023-01-02T08:19:33.660Z,100609.16
2023-01-02T08:22:01.538Z,100619.63
2023-01-02T08:24:29.402Z,100609.59
2023-01-02T08:26:57.400Z,100613.78
2023-01-02T08:29:26.678Z,100620.34
2023-01-02T08:31:54.776Z,100622.69
2023-01-02T08:34:22.695Z,100617.16
2023-01-02T08:36:50.757Z,100618.13
2023-01-02T08:39:20.942Z,100618.44
2023-01-02T08:41:48.800Z,100623.19
2023-01-02T08:44:17.141Z,100629.31
2023-01-02T08:46:48.574Z,100616.22
2023-01-02T08:49:16.445Z,100638.66
2023-01-02T08:51:44.584Z,100650.00
2023-01-02T08:54:12.400Z,100648.88
2023-01-02T08:56:43.126Z,100646.47
2023-01-02T08:59:12.823Z,100646.59
2023-01-02T09:01:41.310Z,100646.13
2023-01-02T09:04:13.646Z,100657.44
2023-01-02T09:06:43.127Z,100669.00
2023-01-02T09:09:14.549Z,100665.22
2023-01-02T09:11:45.690Z,100666.44
2023-01-02T09:14:13.758Z,100668.50
2023-01-02T09:16:43.891Z,100686.22
2023-01-02T09:19:13.227Z,100689.84
2023-01-02T09:21:41.216Z,100688.06
2023-01-02T09:24:10.384Z,100702.84
2023-01-02T09:26:41.739Z,100701.56
2023-01-02T09:29:13.429Z,100701.00
2023-01-02T09:31:42.837Z,100708.38
2023-01-02T09:34:10.723Z,100709.19
2023-01-02T09:36:40.644Z,100706.84
2023-01-02T09:39:09.549Z,100708.38
2023-01-02T09:41:39.726Z,100720.34
2023-01-02T09:44:14.596Z,100712.78
2023-01-02T09:46:49.293Z,100716.13
2023-01-02T09:49:23.953Z,100722.25
2023-01-02T09:51:53.864Z,100719.81
2023-01-02T09:54:26.631Z,100718.69
2023-01-02T09:57:15.971Z,100722.72
2023-01-02T09:59:51.734Z,100720.75
2023-01-02T10:02:34.115Z,100700.72
2023-01-02T10:05:20.279Z,100703.50
2023-01-02T10:07:57.280Z,100701.38
2023-01-02T10:10:34.201Z,100706.34
2023-01-02T10:13:08.156Z,100721.22
2023-01-02T10:15:38.721Z,100712.09
2023-01-02T10:18:15.945Z,100722.22
2023-01-02T10:20:51.770Z,100725.25
2023-01-02T10:23:26.860Z,100726.53
2023-01-02T10:26:00.435Z,100730.50
2023-01-02T10:28:39.079Z,100734.28
2023-01-02T10:31:15.379Z,100723.50
2023-01-02T10:33:47.247Z,100733.53
2023-01-02T10:36:26.487Z,100739.00
2023-01-02T10:38:59.979Z,100732.59
2023-01-02T10:41:32.525Z,100728.03
2023-01-02T10:44:03.717Z,100736.16
2023-01-02T10:46:35.832Z,100734.25
2023-01-02T10:49:05.745Z,100732.25
2023-01-02T10:51:34.723Z,100728.69
2023-01-02T10:54:08.675Z,100733.19
2023-01-02T10:56:41.639Z,100726.00
2023-01-02T10:59:22.328Z,100736.09
2023-01-02T11:01:52.953Z,100729.41
2023-01-02T11:04:26.550Z,100739.75
2023-01-02T11:06:57.956Z,100741.97
2023-01-02T11:09:28.892Z,100752.91
2023-01-02T11:11:59.534Z,100738.09
2023-01-02T11:14:32.800Z,100735.59
2023-01-02T11:17:08.432Z,100738.53
2023-01-02T11:19:41.871Z,100742.19
2023-01-02T11:22:10.835Z,100741.63
2023-01-02T11:24:59.839Z,100752.81
2023-01-02T11:27:32.210Z,100758.69
2023-01-02T11:30:02.044Z,100769.28
2023-01-02T11:32:39.529Z,100756.59
2023-01-02T11:35:35.571Z,100772.94
2023-01-02T11:38:04.751Z,100767.75
2023-01-02T11:40:38.498Z,100764.97
2023-01-02T11:43:28.376Z,100770.56
2023-01-02T11:45:57.036Z,100761.22
2023-01-02T11:48:25.804Z,100775.88
2023-01-02T11:50:54.057Z,100770.84
2023-01-02T11:53:30.515Z,100782.00
2023-01-02T11:56:10.553Z,100788.28
2023-01-02T11:58:50.284Z,100791.09
2023-01-02T12:01:26.541Z,100795.13
2023-01-02T12:03:55.277Z,100805.16
2023-01-02T12:06:43.053Z,100808.34
2023-01-02T12:09:15.885Z,100797.81
2023-01-02T12:12:05.360Z,100808.16
2023-01-02T12:14:52.549Z,100795.84
2023-01-02T12:17:34.551Z,100799.69
2023-01-02T12:20:25.320Z,100797.31
2023-01-02T12:23:25.717Z,100794.81
2023-01-02T12:26:09.100Z,100798.56
2023-01-02T12:29:03.476Z,100805.13
2023-01-02T12:32:06.747Z,100812.53
2023-01-02T12:34:55.758Z,100814.50
2023-01-02T12:37:42.288Z,100815.84
2023-01-02T12:40:38.837Z,100818.34
2023-01-02T12:43:30.395Z,100813.47
2023-01-02T12:46:16.901Z,100819.91
2023-01-02T12:49:01.318Z,100827.41
2023-01-02T12:51:37.214Z,100831.41
2023-01-02T12:54:36.959Z,100841.16
2023-01-02T12:57:21.700Z,100838.63
2023-01-02T13:00:03.638Z,100840.97
2023-01-02T13:02:51.856Z,100845.88
2023-01-02T13:05:23.692Z,100843.47
2023-01-02T13:07:55.672Z,100846.63
2023-01-02T13:10:28.261Z,100849.34
2023-01-02T13:12:58.188Z,100847.97
2023-01-02T13:15:29.600Z,100840.75
2023-01-02T13:18:08.144Z,100840.75
2023-01-02T13:20:46.854Z,100849.84
2023-01-02T13:23:30.402Z,100853.94
2023-01-02T13:26:01.452Z,100851.69
2023-01-02T13:28:29.912Z,100854.25
2023-01-02T13:31:35.438Z,100843.66
2023-01-02T13:33:56.312Z,100843.16
2023-01-02T13:36:26.823Z,100845.84
2023-01-02T13:39:02.771Z,100837.09
2023-01-02T13:41:58.107Z,100831.88
2023-01-02T13:44:34.122Z,100838.13
2023-01-02T13:47:10.139Z,100839.81
2023-01-02T13:49:42.147Z,100843.22
2023-01-02T13:52:19.634Z,100846.31
2023-01-02T13:55:12.188Z,100845.09
2023-01-02T13:57:40.507Z,100833.47
2023-01-02T14:00:32.699Z,100833.47
2023-01-02T14:03:39.400Z,100830.56
2023-01-02T14:06:30.208Z,100840.66
2023-01-02T14:09:10.433Z,100835.13
2023-01-02T14:11:56.000Z,100841.97
2023-01-02T14:14:33.266Z,100847.47
2023-01-02T14:17:18.489Z,100852.19
2023-01-02T14:19:46.958Z,100852.44
2023-01-02T14:22:19.682Z,100853.53
2023-01-02T14:24:50.713Z,100856.78
2023-01-02T14:27:24.182Z,100856.41
2023-01-02T14:29:56.575Z,100866.63
2023-01-02T14:32:38.472Z,100861.22
2023-01-02T14:35:23.254Z,100860.97
2023-01-02T14:37:56.073Z,100863.63
2023-01-02T14:40:39.905Z,100863.16
2023-01-02T14:43:30.511Z,100861.47
2023-01-02T14:46:06.712Z,100857.63
2023-01-02T14:48:39.290Z,100860.50
2023-01-02T14:51:14.566Z,100862.44
2023-01-02T14:53:51.094Z,100867.25
2023-01-02T14:56:22.580Z,100868.69
2023-01-02T14:58:52.576Z,100873.88
2023-01-02T15:01:42.095Z,100882.41
2023-01-02T15:04:22.386Z,100879.59
2023-01-02T15:06:58.463Z,100873.34
2023-01-02T15:09:32.352Z,100870.50
2023-01-02T15:12:20.811Z,100876.25
2023-01-02T15:14:48.989Z,100881.41
2023-01-02T15:17:21.143Z,100887.53
2023-01-02T15:19:49.656Z,100896.06
2023-01-02T15:22:19.786Z,100891.75
2023-01-02T15:24:50.758Z,100908.94
2023-01-02T15:27:24.663Z,100907.41
2023-01-02T15:29:55.533Z,100911.97
2023-01-02T15:32:25.927Z,100909.09
2023-01-02T15:34:55.550Z,100924.13
2023-01-02T15:37:23.928Z,100923.38
2023-01-02T15:39:56.409Z,100923.28
2023-01-02T15:42:44.547Z,100930.25
2023-01-02T15:45:15.203Z,100927.50
2023-01-02T15:47:47.036Z,100929.44
2023-01-02T15:50:19.171Z,100935.31
2023-01-02T15:52:50.980Z,100943.97
2023-01-02T15:55:21.940Z,100951.03
2023-01-02T15:58:25.872Z,100971.63
2023-01-02T16:01:14.337Z,100980.03
2023-01-02T16:04:00.748Z,100986.78
2023-01-02T16:06:34.690Z,101003.00
2023-01-02T16:09:08.119Z,101001.09
2023-01-02T16:11:47.087Z,101008.06
2023-01-02T16:14:22.106Z,101013.09
2023-01-02T16:16:55.107Z,101025.22
2023-01-02T16:19:27.846Z,101021.88
2023-01-02T16:22:06.681Z,101027.41
2023-01-02T16:24:36.865Z,101023.91
2023-01-02T16:27:06.904Z,101036.53
2023-01-02T16:29:34.919Z,101035.56
2023-01-02T16:32:03.382Z,101047.50
2023-01-02T16:34:40.673Z,101043.50
2023-01-02T16:37:34.002Z,101045.44
2023-01-02T16:41:00.834Z,101040.38
2023-01-02T16:43:41.318Z,101050.34
2023-01-02T16:46:16.270Z,101050.81
2023-01-02T16:48:44.938Z,101043.25
2023-01-02T16:51:16.181Z,101038.19
2023-01-02T16:53:46.775Z,101041.28
2023-01-02T16:56:15.708Z,101025.44
2023-01-02T16:58:45.087Z,101042.16
2023-01-02T17:01:15.212Z,101022.69
2023-01-02T17:03:44.580Z,101022.19
2023-01-02T17:06:14.195Z,101027.81
2023-01-02T17:08:42.903Z,101029.09
2023-01-02T17:11:16.861Z,101048.56
2023-01-02T17:13:46.430Z,101064.63
2023-01-02T17:16:14.920Z,101076.19
2023-01-02T17:18:43.492Z,101092.78
2023-01-02T17:21:12.889Z,101103.56
2023-01-02T17:23:43.131Z,101106.72
2023-01-02T17:26:11.159Z,101119.69
2023-01-02T17:28:39.122Z,101133.84
2023-01-02T17:31:09.445Z,101134.22
2023-01-02T17:33:37.478Z,101150.03
2023-01-02T17:36:07.156Z,101152.69
2023-01-02T17:38:37.542Z,101164.88
2023-01-02T17:41:05.759Z,101170.53
2023-01-02T17:43:33.728Z,101172.34
2023-01-02T17:46:30.318Z,101171.59
2023-01-02T17:48:56.541Z,101185.66
2023-01-02T17:51:26.965Z,101182.69
2023-01-02T17:53:55.863Z,101191.63
2023-01-02T17:56:24.562Z,101189.25
2023-01-02T17:58:53.193Z,101196.69
2023-01-02T18:01:24.152Z,101214.34
2023-01-02T18:03:54.637Z,101214.00
2023-01-02T18:06:25.668Z,101208.78
2023-01-02T18:08:57.982Z,101225.66
2023-01-02T18:11:29.463Z,101224.06
2023-01-02T18:13:59.188Z,101231.56
2023-01-02T18:16:33.226Z,101228.41
2023-01-02T18:19:04.393Z,101226.44
2023-01-02T18:21:36.286Z,101229.91
2023-01-02T18:24:14.311Z,101244.06
2023-01-02T18:26:45.955Z,101250.50
2023-01-02T18:29:22.330Z,101253.66
2023-01-02T18:31:54.068Z,101260.22
2023-01-02T18:37:23.343Z,101270.88
2023-01-02T18:39:52.715Z,101281.41
2023-01-02T18:42:23.531Z,101284.28
2023-01-02T18:44:52.751Z,101290.91
2023-01-02T18:47:28.861Z,101301.78
2023-01-02T18:49:59.936Z,101304.28
2023-01-02T18:52:31.307Z,101309.88
2023-01-02T18:55:02.521Z,101307.47
2023-01-02T18:57:34.229Z,101314.53
2023-01-02T19:00:17.169Z,101321.94
2023-01-02T19:02:55.067Z,101328.16
2023-01-02T19:05:27.424Z,101329.97
2023-01-02T19:08:03.424Z,101332.56
2023-01-02T19:10:37.293Z,101332.72
2023-01-02T19:13:08.063Z,101335.66
2023-01-02T19:15:43.332Z,101338.41
2023-01-02T19:18:38.159Z,101341.75
2023-01-02T19:21:17.558Z,101336.81
2023-01-02T19:23:53.667Z,101340.94
2023-01-02T19:26:28.443Z,101334.63
2023-01-02T19:28:59.604Z,101340.09
2023-01-02T19:31:34.906Z,101341.34
2023-01-02T19:34:03.156Z,101343.91
2023-01-02T19:36:39.867Z,101344.09
2023-01-02T19:39:25.171Z,101343.13
2023-01-02T19:42:10.431Z,101343.13
2023-01-02T19:44:39.611Z,101351.25
2023-01-02T19:47:07.445Z,101351.56
2023-01-02T19:49:35.950Z,101353.56
2023-01-02T19:52:04.229Z,101357.25
2023-01-02T19:54:33.873Z,101355.97
2023-01-02T19:57:01.793Z,101364.28
2023-01-02T19:59:29.771Z,101367.16
2023-01-02T20:02:00.570Z,101369.13
2023-01-02T20:04:29.229Z,101380.16
2023-01-02T20:06:57.257Z,101378.22
2023-01-02T20:09:27.095Z,101379.09
2023-01-02T20:12:14.464Z,101393.81
2023-01-02T20:14:43.568Z,101387.06
2023-01-02T20:17:12.067Z,101393.28
2023-01-02T20:19:42.189Z,101396.28
2023-01-02T20:22:10.646Z,101403.19
2023-01-02T20:24:39.285Z,101402.53
2023-01-02T20:27:09.117Z,101407.13
2023-01-02T20:29:37.145Z,101419.16
2023-01-02T20:32:07.767Z,101419.75
2023-01-02T20:34:36.102Z,101422.38
2023-01-02T20:37:04.245Z,101427.19
2023-01-02T20:39:32.291Z,101436.41
2023-01-02T20:42:00.371Z,101445.13
2023-01-02T20:44:29.693Z,101449.28
2023-01-02T20:47:01.648Z,101449.94
2023-01-02T20:49:32.819Z,101454.34
2023-01-02T20:52:00.862Z,101455.22
2023-01-02T20:54:40.444Z,101454.06
2023-01-02T20:57:10.539Z,101455.50
2023-01-02T20:59:42.067Z,101456.97
2023-01-02T21:02:10.200Z,101451.78
2023-01-02T21:04:38.219Z,101461.38
2023-01-02T21:07:06.610Z,101466.56
2023-01-02T21:09:35.826Z,101462.34
2023-01-02T21:12:25.742Z,101480.59
2023-01-02T21:14:56.249Z,101485.28
2023-01-02T21:17:24.372Z,101479.38
2023-01-02T21:19:53.051Z,101490.94
2023-01-02T21:22:21.041Z,101499.78
2023-01-02T21:24:48.920Z,101499.13
2023-01-02T21:27:16.926Z,101504.47
2023-01-02T21:29:46.098Z,101502.63
2023-01-02T21:32:15.439Z,101499.41
2023-01-02T21:34:43.710Z,101506.38
2023-01-02T21:37:11.688Z,101499.13
2023-01-02T21:39:39.547Z,101505.78
2023-01-02T21:42:19.504Z,101504.38
2023-01-02T21:44:48.302Z,101510.88
2023-01-02T21:47:18.301Z,101505.53
2023-01-02T21:49:46.610Z,101511.06
2023-01-02T21:52:15.687Z,101518.31
2023-01-02T21:54:44.198Z,101518.06
2023-01-02T21:57:12.435Z,101526.50
2023-01-02T21:59:40.263Z,101528.84
2023-01-02T22:02:08.643Z,101532.91
2023-01-02T22:04:38.379Z,101534.03
2023-01-02T22:07:31.793Z,101542.13
2023-01-02T22:09:54.746Z,101548.97
2023-01-02T22:12:22.895Z,101548.97
2023-01-02T22:14:50.793Z,101553.88
2023-01-02T22:17:18.707Z,101554.06
2023-01-02T22:19:47.893Z,101557.75
2023-01-02T22:22:16.338Z,101557.47
2023-01-02T22:24:45.113Z,101557.19
2023-01-02T22:27:17.994Z,101559.53
2023-01-02T22:30:20.509Z,101559.16
2023-01-02T22:32:37.031Z,101553.34
2023-01-02T22:35:09.326Z,101564.34
2023-01-02T22:37:37.435Z,101564.69
2023-01-02T22:40:06.117Z,101563.75
2023-01-02T22:43:05.595Z,101562.06
2023-01-02T22:45:43.149Z,101571.56
2023-01-02T22:48:19.489Z,101576.66
2023-01-02T22:50:50.545Z,101583.78
2023-01-02T22:53:21.624Z,101590.00
2023-01-02T22:55:50.269Z,101594.53
2023-01-02T22:58:18.953Z,101598.75
2023-01-02T23:00:48.871Z,101603.25
2023-01-02T23:03:17.843Z,101599.31
2023-01-02T23:05:50.285Z,101603.84
2023-01-02T23:08:18.343Z,101588.41
2023-01-02T23:10:48.501Z,101603.00
2023-01-02T23:13:16.392Z,101597.22
2023-01-02T23:15:58.528Z,101600.06
2023-01-02T23:18:44.668Z,101600.16
2023-01-02T23:21:14.400Z,101607.41
2023-01-02T23:23:43.371Z,101607.59
2023-01-02T23:26:13.615Z,101613.41
2023-01-02T23:31:31.979Z,101612.75
2023-01-02T23:34:01.520Z,101619.63
2023-01-02T23:36:34.184Z,101623.25
2023-01-02T23:39:02.727Z,101629.13
2023-01-02T23:41:30.664Z,101626.00
2023-01-02T23:43:58.787Z,101620.47
2023-01-02T23:46:27.283Z,101623.03
2023-01-02T23:48:55.414Z,101614.34
2023-01-02T23:51:23.272Z,101619.06
2023-01-02T23:53:52.590Z,101618.84
2023-01-02T23:56:21.855Z,101620.88
2023-01-02T23:58:51.427Z,101619.19
